Villa Verona, California
Current Conditions -  °F | °C
As of 7:53 PM on Tuesday 27 Jan 2015 (Local Time) from KOVE Reporting Station
Clear Clear  
Wind Chill: 53°   Ceiling: Unl
Heat Index: 53°   Visibility: 8mi
Dew Point: 48°   Wind: 0mph
Humidity: 83%   Direction: NA
Pressure: 30.27"   Gusts: NA
Location:  39.5324°N, 121.648°W
Report Text: KOVE 280353Z AUTO 00000KT 8SM CLR 12/09 A3027 RMK AO2 SLP252 T01170089 $
Loading
Personal Weather Stations






























Interactive Weather Map New forecast layout! Learn more

10-Day Weather Forecast

Advertisements
Track Severe Weather on mobile